Time;durP1;ratioP1;P1;durP2;ratioP2;P2;SDS_P1;SDS_P2;PMS_P1;PMS_P2;Temp;Humidity;BMP_temperature;BMP_pressure;BME280_temperature;BME280_humidity;BME280_pressure;Samples;Min_cycle;Max_cycle;Signal;HPM_P1;HPM_P2
2022/08/27 00:00:42;;;;;;;8.07;1.98;;;16.40;99.90;;;;;;5073688;28;20067;-73
2022/08/27 00:03:08;;;;;;;8.15;2.13;;;16.40;99.90;;;;;;5055137;28;20093;-73
2022/08/27 00:05:35;;;;;;;5.28;2.28;;;16.30;99.90;;;;;;5073895;28;20052;-73
2022/08/27 00:08:03;;;;;;;6.40;2.00;;;17.00;99.90;;;;;;5073909;28;20097;-72
2022/08/27 00:10:29;;;;;;;5.47;2.10;;;16.30;99.90;;;;;;5073134;28;20106;-73
2022/08/27 00:12:55;;;;;;;4.43;2.13;;;16.30;99.90;;;;;;5072565;28;20415;-75
2022/08/27 00:15:21;;;;;;;5.10;2.58;;;16.30;99.90;;;;;;5071667;28;20043;-74
2022/08/27 00:17:47;;;;;;;6.05;2.67;;;16.20;99.90;;;;;;5073770;28;20145;-72
2022/08/27 00:20:17;;;;;;;8.77;2.72;;;16.20;99.90;;;;;;5073537;28;20558;-73
2022/08/27 00:22:42;;;;;;;6.07;2.70;;;16.10;99.90;;;;;;5071446;28;20045;-74
2022/08/27 00:25:10;;;;;;;4.72;2.00;;;16.10;99.90;;;;;;5055944;28;20190;-73
2022/08/27 00:27:36;;;;;;;4.13;2.67;;;16.10;99.90;;;;;;5073052;28;20076;-74
2022/08/27 00:30:03;;;;;;;6.60;2.53;;;16.80;99.90;;;;;;5071235;28;20441;-72
2022/08/27 00:32:29;;;;;;;4.07;2.03;;;16.10;99.90;;;;;;5073343;28;20048;-73
2022/08/27 00:34:55;;;;;;;6.25;2.45;;;16.10;99.90;;;;;;5073361;28;20059;-74
2022/08/27 00:37:20;;;;;;;4.60;2.40;;;16.00;99.90;;;;;;5072533;28;20036;-71
2022/08/27 00:39:46;;;;;;;6.40;2.60;;;16.00;99.90;;;;;;5073675;28;20081;-72
2022/08/27 00:42:11;;;;;;;4.18;2.65;;;16.00;99.90;;;;;;5073584;28;20047;-72
2022/08/27 00:44:38;;;;;;;4.18;2.40;;;16.10;99.90;;;;;;5071200;28;20075;-71
2022/08/27 00:47:09;;;;;;;3.97;2.60;;;15.90;99.90;;;;;;5071640;28;20549;-71
2022/08/27 00:49:46;;;;;;;8.38;3.03;;;15.90;99.90;;;;;;5073057;28;20044;-71
2022/08/27 00:52:22;;;;;;;4.63;2.35;;;17.00;99.90;;;;;;5065307;28;20120;-72
2022/08/27 00:54:52;;;;;;;5.30;2.65;;;15.80;99.90;;;;;;5071730;28;20041;-71
2022/08/27 00:57:18;;;;;;;5.45;2.88;;;16.20;99.90;;;;;;5071961;28;20054;-71
2022/08/27 00:59:44;;;;;;;8.18;2.58;;;15.80;99.90;;;;;;5054512;28;20476;-72
2022/08/27 01:02:17;;;;;;;5.28;2.85;;;15.80;99.90;;;;;;5072805;28;20090;-72
2022/08/27 01:04:59;;;;;;;4.00;2.25;;;15.80;99.90;;;;;;5054598;28;20093;-72
2022/08/27 01:07:26;;;;;;;4.47;2.70;;;15.70;99.90;;;;;;5071638;28;20048;-74
2022/08/27 01:09:54;;;;;;;7.32;3.00;;;15.80;99.90;;;;;;5071392;28;20515;-72
2022/08/27 01:12:19;;;;;;;6.90;2.72;;;15.70;99.90;;;;;;5072101;28;20044;-72
2022/08/27 01:14:46;;;;;;;8.60;2.80;;;16.50;99.90;;;;;;5072358;28;20047;-72
2022/08/27 01:17:13;;;;;;;4.93;2.50;;;16.10;99.90;;;;;;5072734;28;20041;-72
2022/08/27 01:19:42;;;;;;;7.50;3.00;;;15.70;99.90;;;;;;5071662;28;20178;-73
2022/08/27 01:22:37;;;;;;;8.55;3.33;;;15.70;99.90;;;;;;5072046;28;20076;-75
2022/08/27 01:25:08;;;;;;;6.45;2.95;;;15.70;99.90;;;;;;5061785;28;20052;-72
2022/08/27 01:27:34;;;;;;;10.20;3.45;;;15.70;99.90;;;;;;5070333;28;20114;-73
2022/08/27 01:30:01;;;;;;;3.42;2.53;;;15.70;99.90;;;;;;5072137;28;20043;-73
2022/08/27 01:32:29;;;;;;;3.92;2.45;;;15.70;99.90;;;;;;5071370;28;20086;-75
2022/08/27 01:34:56;;;;;;;6.38;3.08;;;15.70;99.90;;;;;;5071854;28;20033;-73
2022/08/27 01:37:26;;;;;;;6.32;2.83;;;16.00;99.90;;;;;;5071842;28;20033;-73
2022/08/27 01:39:54;;;;;;;5.38;2.42;;;15.60;99.90;;;;;;5069943;28;20544;-74
2022/08/27 01:42:38;;;;;;;4.20;2.85;;;15.60;99.90;;;;;;5071847;28;20465;-75
2022/08/27 01:45:07;;;;;;;5.97;2.70;;;15.60;99.90;;;;;;5070497;28;20051;-73
2022/08/27 01:47:35;;;;;;;6.80;2.50;;;15.60;99.90;;;;;;5071048;28;20481;-74
2022/08/27 01:50:02;;;;;;;4.25;2.85;;;15.60;99.90;;;;;;5071313;28;20080;-72
2022/08/27 01:52:29;;;;;;;5.90;2.78;;;15.60;99.90;;;;;;5053699;28;20067;-74
2022/08/27 01:54:55;;;;;;;3.83;2.40;;;15.60;99.90;;;;;;5071192;28;20339;-73
2022/08/27 01:57:22;;;;;;;6.75;2.78;;;15.60;99.90;;;;;;5072106;28;20044;-72
2022/08/27 01:59:48;;;;;;;5.35;2.22;;;15.60;99.90;;;;;;5070349;28;20044;-73
2022/08/27 02:02:15;;;;;;;5.30;2.33;;;16.30;99.90;;;;;;5069432;28;20033;-74
2022/08/27 02:04:41;;;;;;;7.60;2.83;;;16.10;99.90;;;;;;5071844;28;20473;-72
2022/08/27 02:07:07;;;;;;;4.38;2.75;;;16.30;99.90;;;;;;5071093;28;20047;-73
2022/08/27 02:09:33;;;;;;;4.53;2.22;;;15.60;99.90;;;;;;5070950;28;20044;-72
2022/08/27 02:12:02;;;;;;;4.15;2.60;;;15.80;99.90;;;;;;5071075;28;20491;-72
2022/08/27 02:14:28;;;;;;;6.45;2.08;;;16.00;99.90;;;;;;5071412;28;20047;-74
2022/08/27 02:16:54;;;;;;;7.60;2.85;;;15.60;99.90;;;;;;5069528;28;20060;-74
2022/08/27 02:19:20;;;;;;;5.30;2.53;;;16.40;99.90;;;;;;5070124;28;20114;-72
2022/08/27 02:21:46;;;;;;;6.75;3.15;;;15.60;99.90;;;;;;5069256;28;20070;-73
2022/08/27 02:24:12;;;;;;;5.97;2.67;;;15.90;99.90;;;;;;5071578;28;20064;-71
2022/08/27 02:26:38;;;;;;;4.55;2.60;;;15.70;99.90;;;;;;5071283;28;20045;-73
2022/08/27 02:29:04;;;;;;;4.75;2.72;;;15.60;99.90;;;;;;5068881;28;20487;-73
2022/08/27 02:31:30;;;;;;;7.10;2.75;;;15.50;99.90;;;;;;5071034;28;20048;-74
2022/08/27 02:33:56;;;;;;;3.70;2.28;;;15.50;99.90;;;;;;5070868;28;20731;-75
2022/08/27 02:36:22;;;;;;;4.57;2.65;;;15.50;99.90;;;;;;5070554;28;20032;-72
2022/08/27 02:38:48;;;;;;;3.88;2.20;;;15.40;99.90;;;;;;5069699;28;20379;-74
2022/08/27 02:41:15;;;;;;;5.50;2.60;;;16.50;99.90;;;;;;5071332;28;20091;-74
2022/08/27 02:43:41;;;;;;;4.43;2.10;;;15.40;99.90;;;;;;5070668;28;20040;-74
2022/08/27 02:46:07;;;;;;;6.03;2.78;;;15.40;99.90;;;;;;5070680;28;20048;-73
2022/08/27 02:48:36;;;;;;;3.95;2.45;;;15.40;99.90;;;;;;5069438;28;20107;-73
2022/08/27 02:51:04;;;;;;;3.78;2.22;;;15.50;99.90;;;;;;5069985;28;20052;-72
2022/08/27 02:53:29;;;;;;;8.15;2.45;;;15.40;99.90;;;;;;5070792;28;20033;-72
2022/08/27 02:55:55;;;;;;;4.97;2.28;;;15.40;99.90;;;;;;5053026;28;20399;-73
2022/08/27 02:58:20;;;;;;;4.50;2.00;;;15.50;99.90;;;;;;5069940;28;20041;-72
2022/08/27 03:00:47;;;;;;;4.13;1.98;;;15.00;99.90;;;;;;5070613;28;20373;-72
2022/08/27 03:03:12;;;;;;;7.07;2.83;;;15.40;99.90;;;;;;5052440;28;20052;-72
2022/08/27 03:05:39;;;;;;;3.70;2.20;;;15.80;99.90;;;;;;5068700;28;20048;-72
2022/08/27 03:08:05;;;;;;;2.97;2.00;;;15.40;99.90;;;;;;5069047;28;20052;-71
2022/08/27 03:10:31;;;;;;;6.53;2.83;;;15.40;99.90;;;;;;5070389;28;20048;-71
2022/08/27 03:12:57;;;;;;;3.35;2.10;;;15.40;99.90;;;;;;5051886;28;20041;-72
2022/08/27 03:15:23;;;;;;;5.15;2.47;;;14.60;99.90;;;;;;5070485;28;20473;-72
2022/08/27 03:20:39;;;;;;;4.00;2.15;;;15.40;99.90;;;;;;5070728;28;20040;-72
2022/08/27 03:23:05;;;;;;;2.92;2.20;;;15.40;99.90;;;;;;5068946;28;20137;-72
2022/08/27 03:25:31;;;;;;;4.68;2.60;;;15.40;99.90;;;;;;5070124;28;20044;-72
2022/08/27 03:27:57;;;;;;;5.68;2.53;;;15.40;99.90;;;;;;5068936;28;20048;-72
2022/08/27 03:30:23;;;;;;;4.53;2.17;;;15.50;99.90;;;;;;5070839;28;20036;-74
2022/08/27 03:32:50;;;;;;;3.95;2.10;;;15.30;99.90;;;;;;5069568;28;20037;-73
2022/08/27 03:35:16;;;;;;;3.25;2.38;;;15.30;99.90;;;;;;5070760;28;20107;-72
2022/08/27 03:37:42;;;;;;;2.70;2.17;;;15.30;99.90;;;;;;5071268;28;20128;-72
2022/08/27 03:40:09;;;;;;;4.20;2.13;;;15.20;99.90;;;;;;5071044;28;20119;-74
2022/08/27 03:42:35;;;;;;;4.10;2.13;;;15.20;99.90;;;;;;5070334;28;20076;-72
2022/08/27 03:45:01;;;;;;;5.97;2.08;;;15.20;99.90;;;;;;5070493;28;20036;-73
2022/08/27 03:47:26;;;;;;;4.38;2.33;;;15.20;99.90;;;;;;5069602;28;20102;-73
2022/08/27 03:49:52;;;;;;;9.15;2.28;;;15.20;99.90;;;;;;5070655;28;20123;-74
2022/08/27 03:52:18;;;;;;;2.78;2.42;;;15.20;99.90;;;;;;5070341;28;20135;-72
2022/08/27 03:54:44;;;;;;;4.43;2.40;;;16.30;99.90;;;;;;5068746;28;20044;-72
2022/08/27 03:57:10;;;;;;;6.15;2.80;;;15.20;99.90;;;;;;5072447;28;20090;-72
2022/08/27 03:59:36;;;;;;;5.10;2.30;;;15.10;99.90;;;;;;5074168;28;20041;-73
2022/08/27 04:02:01;;;;;;;3.22;2.25;;;15.20;99.90;;;;;;5073026;28;20033;-73
2022/08/27 04:04:27;;;;;;;3.80;2.00;;;14.70;99.90;;;;;;5074077;28;20093;-73
2022/08/27 04:06:54;;;;;;;4.97;2.40;;;15.20;99.90;;;;;;5072908;28;20044;-73
2022/08/27 04:09:19;;;;;;;3.92;3.15;;;15.00;99.90;;;;;;5073212;28;20049;-73
2022/08/27 04:11:45;;;;;;;5.90;2.25;;;16.00;99.90;;;;;;5073691;28;20047;-74
2022/08/27 04:14:11;;;;;;;6.55;1.95;;;14.90;99.90;;;;;;5073811;28;20055;-75
2022/08/27 04:16:39;;;;;;;4.35;2.30;;;15.50;99.90;;;;;;5071902;28;20060;-74
2022/08/27 04:19:05;;;;;;;6.18;2.33;;;15.90;99.90;;;;;;5074193;28;20083;-74
2022/08/27 04:21:32;;;;;;;5.43;2.50;;;14.90;99.90;;;;;;5072842;28;20075;-73
2022/08/27 04:23:59;;;;;;;5.03;2.65;;;14.80;99.90;;;;;;5072141;28;20056;-74
2022/08/27 04:26:25;;;;;;;5.13;2.53;;;14.80;99.90;;;;;;5073818;28;20408;-72
2022/08/27 04:28:51;;;;;;;5.18;2.63;;;15.40;99.90;;;;;;5072741;28;20408;-72
2022/08/27 04:31:17;;;;;;;4.63;2.50;;;14.80;99.90;;;;;;5073585;28;20032;-73
2022/08/27 04:33:44;;;;;;;4.47;2.15;;;14.70;99.90;;;;;;5073197;28;20468;-74
2022/08/27 04:36:09;;;;;;;4.32;2.15;;;15.20;99.90;;;;;;5071785;28;20044;-73
2022/08/27 04:38:37;;;;;;;4.22;2.45;;;15.10;99.90;;;;;;5072458;28;20377;-73
2022/08/27 04:41:20;;;;;;;3.70;2.00;;;14.60;99.90;;;;;;5073612;28;20053;-73
2022/08/27 04:43:49;;;;;;;6.60;2.40;;;14.60;99.90;;;;;;5072510;28;20146;-74
2022/08/27 04:46:33;;;;;;;4.63;2.10;;;14.60;99.90;;;;;;5073234;28;20037;-72
2022/08/27 04:49:02;;;;;;;4.57;2.15;;;14.60;99.90;;;;;;5073251;28;20551;-72
2022/08/27 04:51:29;;;;;;;3.90;2.63;;;14.60;99.90;;;;;;5072716;28;20036;-72
2022/08/27 04:53:55;;;;;;;4.05;2.05;;;14.80;99.90;;;;;;5072827;28;20095;-74
2022/08/27 04:56:21;;;;;;;5.10;2.33;;;14.60;99.90;;;;;;5073168;28;20044;-76
2022/08/27 04:58:48;;;;;;;5.07;2.58;;;14.50;99.90;;;;;;5072368;28;20399;-73
2022/08/27 05:01:17;;;;;;;3.65;2.80;;;14.50;99.90;;;;;;5073224;28;20068;-74
2022/08/27 05:03:43;;;;;;;5.38;2.47;;;14.60;99.90;;;;;;5071145;28;20044;-73
2022/08/27 05:06:09;;;;;;;3.45;2.58;;;14.80;99.90;;;;;;5074472;28;20044;-73
2022/08/27 05:08:34;;;;;;;3.55;2.15;;;14.40;99.90;;;;;;5072050;28;20558;-73
2022/08/27 05:11:01;;;;;;;5.82;2.63;;;14.60;99.90;;;;;;5072497;28;20041;-71
2022/08/27 05:13:27;;;;;;;6.40;2.50;;;15.40;99.90;;;;;;5072428;28;20115;-73
2022/08/27 05:16:00;;;;;;;3.55;2.15;;;14.90;99.90;;;;;;5072983;28;20368;-72
2022/08/27 05:18:26;;;;;;;2.67;2.25;;;14.50;99.90;;;;;;5064584;28;20033;-71
2022/08/27 05:20:52;;;;;;;7.05;2.55;;;14.50;99.90;;;;;;5072769;28;20036;-72
2022/08/27 05:23:18;;;;;;;3.33;2.40;;;14.50;99.90;;;;;;5072726;28;20419;-72
2022/08/27 05:25:46;;;;;;;3.92;2.10;;;14.60;99.90;;;;;;5072005;28;20135;-72
2022/08/27 05:28:14;;;;;;;3.70;2.58;;;14.60;99.90;;;;;;5072267;28;20080;-72
2022/08/27 05:30:43;;;;;;;3.42;2.00;;;14.60;99.90;;;;;;5071110;28;20044;-71
2022/08/27 05:33:09;;;;;;;5.38;2.22;;;14.70;99.90;;;;;;5071611;28;20045;-72
2022/08/27 05:35:43;;;;;;;5.30;2.47;;;14.70;99.90;;;;;;5071349;28;20037;-72
2022/08/27 05:38:09;;;;;;;2.47;2.03;;;15.00;99.90;;;;;;5072623;28;20041;-73
2022/08/27 05:40:35;;;;;;;4.78;2.10;;;14.80;99.90;;;;;;5071689;28;20083;-73
2022/08/27 05:43:01;;;;;;;5.35;2.67;;;15.70;99.90;;;;;;5070528;28;20055;-73
2022/08/27 05:45:27;;;;;;;5.60;2.00;;;14.90;99.90;;;;;;5070952;28;20047;-73
2022/08/27 05:47:53;;;;;;;8.50;2.72;;;14.90;99.90;;;;;;5070104;28;20037;-73
2022/08/27 05:50:19;;;;;;;5.18;2.70;;;14.90;99.90;;;;;;5070766;28;20043;-73
2022/08/27 05:52:44;;;;;;;5.88;2.55;;;15.00;99.90;;;;;;5071354;28;20041;-74
2022/08/27 05:55:11;;;;;;;4.80;2.28;;;15.00;99.90;;;;;;5072028;28;20098;-73
2022/08/27 05:57:39;;;;;;;3.17;2.35;;;15.00;99.90;;;;;;5072814;28;20044;-74
2022/08/27 06:02:49;;;;;;;3.85;2.33;;;15.00;99.90;;;;;;5071981;28;20040;-75
2022/08/27 06:05:15;;;;;;;3.80;1.90;;;15.00;99.90;;;;;;5071680;28;20072;-71
2022/08/27 06:07:41;;;;;;;7.63;2.55;;;15.00;99.90;;;;;;5071224;28;20041;-73
2022/08/27 06:10:08;;;;;;;6.80;2.15;;;15.00;99.90;;;;;;5071390;28;20048;-72
2022/08/27 06:12:34;;;;;;;6.43;1.73;;;15.00;99.90;;;;;;5071742;28;20036;-71
2022/08/27 06:15:00;;;;;;;5.22;2.25;;;14.60;99.90;;;;;;5069869;28;20048;-72
2022/08/27 06:17:26;;;;;;;6.70;2.63;;;15.00;99.90;;;;;;5063615;28;20041;-72
2022/08/27 06:19:51;;;;;;;7.38;2.10;;;15.00;99.90;;;;;;5071305;28;20056;-71
2022/08/27 06:22:17;;;;;;;8.55;2.50;;;15.10;99.90;;;;;;5070655;28;20075;-73
2022/08/27 06:24:43;;;;;;;5.03;2.50;;;15.10;99.90;;;;;;5071580;28;20428;-74
2022/08/27 06:27:12;;;;;;;3.63;1.77;;;15.20;99.90;;;;;;5071153;28;20060;-74
2022/08/27 06:29:38;;;;;;;6.70;2.42;;;16.10;99.90;;;;;;5069790;28;20075;-75
2022/08/27 06:32:04;;;;;;;4.43;1.92;;;15.20;99.90;;;;;;5074052;28;20044;-75
2022/08/27 06:34:30;;;;;;;2.50;1.90;;;15.20;99.90;;;;;;5070865;28;20044;-72
2022/08/27 06:36:55;;;;;;;4.20;1.92;;;15.70;99.90;;;;;;5070616;28;20396;-73
2022/08/27 06:39:21;;;;;;;6.18;2.20;;;15.30;99.90;;;;;;5069920;28;20048;-73
2022/08/27 06:41:49;;;;;;;5.43;2.65;;;16.10;99.90;;;;;;5070926;28;20040;-71
2022/08/27 06:44:15;;;;;;;6.75;2.08;;;15.50;99.90;;;;;;5070622;28;20045;-74
2022/08/27 06:46:41;;;;;;;6.90;2.25;;;15.80;99.90;;;;;;5053296;28;20119;-72
2022/08/27 06:49:08;;;;;;;8.73;1.95;;;15.60;99.90;;;;;;5070530;28;20040;-72
2022/08/27 06:51:36;;;;;;;6.53;1.70;;;15.70;99.90;;;;;;5069636;28;20048;-73
2022/08/27 06:54:07;;;;;;;8.02;1.80;;;15.70;99.90;;;;;;5070006;28;20488;-72
2022/08/27 06:56:34;;;;;;;5.05;1.98;;;15.80;99.90;;;;;;5063214;28;20553;-71
2022/08/27 06:59:04;;;;;;;4.55;1.63;;;15.90;99.90;;;;;;5071149;28;20045;-75
2022/08/27 07:01:35;;;;;;;5.25;2.10;;;16.50;99.90;;;;;;5062719;28;20033;-74
2022/08/27 07:04:05;;;;;;;5.38;3.67;;;16.20;99.90;;;;;;5070356;28;20068;-74
2022/08/27 07:06:32;;;;;;;10.70;4.30;;;16.30;99.90;;;;;;5062923;28;20074;-73
2022/08/27 07:08:58;;;;;;;17.55;10.27;;;16.20;99.90;;;;;;5070733;28;20102;-72
2022/08/27 07:11:25;;;;;;;4.32;3.33;;;16.20;99.90;;;;;;5070053;28;20043;-73
2022/08/27 07:13:51;;;;;;;9.10;2.55;;;16.50;99.90;;;;;;5070925;28;20078;-72
2022/08/27 07:16:20;;;;;;;4.28;1.38;;;16.30;99.90;;;;;;5070690;28;20498;-71
2022/08/27 07:18:49;;;;;;;7.35;1.40;;;16.40;99.90;;;;;;5070408;28;20040;-72
2022/08/27 07:21:18;;;;;;;3.80;1.10;;;16.50;99.90;;;;;;5070753;28;20099;-71
2022/08/27 07:23:45;;;;;;;2.95;1.02;;;16.50;99.90;;;;;;5069685;28;20713;-73
2022/08/27 07:26:13;;;;;;;4.53;1.27;;;16.60;99.90;;;;;;5068984;28;20392;-72
2022/08/27 07:28:40;;;;;;;5.05;2.45;;;16.70;99.90;;;;;;5070543;28;20060;-73
2022/08/27 07:31:07;;;;;;;10.40;6.70;;;16.90;99.90;;;;;;5070882;28;20439;-72
2022/08/27 07:33:34;;;;;;;6.38;2.58;;;16.80;99.90;;;;;;5073465;28;20043;-72
2022/08/27 07:36:00;;;;;;;4.60;1.60;;;16.80;99.90;;;;;;5074788;28;20040;-73
2022/08/27 07:38:26;;;;;;;7.53;2.35;;;16.90;99.90;;;;;;5055957;28;20087;-73
2022/08/27 07:40:52;;;;;;;4.38;1.23;;;17.00;99.90;;;;;;5073243;28;20500;-72
2022/08/27 07:46:03;;;;;;;7.43;2.85;;;17.10;99.90;;;;;;5074502;28;20083;-70
2022/08/27 07:48:29;;;;;;;7.63;2.33;;;17.10;99.90;;;;;;5073205;28;20698;-71
2022/08/27 07:50:55;;;;;;;6.00;1.58;;;17.30;99.90;;;;;;5073572;28;20045;-72
2022/08/27 07:53:21;;;;;;;6.78;1.27;;;17.30;99.90;;;;;;5074020;28;20052;-72
2022/08/27 07:55:46;;;;;;;3.42;1.05;;;17.30;99.90;;;;;;5074392;28;20041;-71
2022/08/27 07:58:13;;;;;;;8.82;1.10;;;17.50;99.90;;;;;;5073572;28;20441;-71
2022/08/27 08:00:43;;;;;;;8.98;1.02;;;18.00;99.90;;;;;;5073174;28;20039;-73
2022/08/27 08:03:13;;;;;;;5.32;1.20;;;17.50;99.90;;;;;;5056297;28;20033;-72
2022/08/27 08:05:43;;;;;;;8.60;1.20;;;17.60;99.90;;;;;;5065714;28;20374;-73
2022/08/27 08:08:09;;;;;;;6.68;1.27;;;17.60;99.90;;;;;;5056161;28;20033;-74
2022/08/27 08:10:35;;;;;;;5.18;1.17;;;17.60;99.90;;;;;;5074059;28;20048;-72
2022/08/27 08:13:02;;;;;;;6.05;1.17;;;17.70;99.90;;;;;;5073165;28;20029;-74
2022/08/27 08:15:28;;;;;;;6.20;1.17;;;17.80;99.90;;;;;;5073909;28;20048;-73
2022/08/27 08:17:54;;;;;;;8.25;1.20;;;17.80;99.90;;;;;;5072819;28;20094;-74
2022/08/27 08:20:20;;;;;;;9.27;1.05;;;17.90;99.90;;;;;;5055257;28;20075;-74
2022/08/27 08:22:46;;;;;;;9.27;1.17;;;17.90;99.90;;;;;;5073726;28;20553;-74
2022/08/27 08:25:12;;;;;;;6.32;0.93;;;17.90;99.90;;;;;;5072604;28;20048;-75
2022/08/27 08:27:39;;;;;;;6.35;1.33;;;17.90;99.90;;;;;;5071669;28;20492;-72
2022/08/27 08:30:06;;;;;;;7.90;0.70;;;17.90;99.90;;;;;;5073918;28;20419;-73
2022/08/27 08:32:31;;;;;;;4.18;0.73;;;18.00;99.90;;;;;;5073316;28;20052;-73
2022/08/27 08:34:58;;;;;;;6.55;1.40;;;18.00;99.90;;;;;;5072720;28;20086;-74
2022/08/27 08:37:25;;;;;;;5.70;1.10;;;18.00;99.90;;;;;;5073757;28;20127;-72
2022/08/27 08:39:50;;;;;;;6.70;1.00;;;18.20;99.90;;;;;;5072652;28;20377;-73
2022/08/27 08:42:27;;;;;;;5.35;1.40;;;18.10;99.90;;;;;;5070812;28;20040;-73
2022/08/27 08:44:54;;;;;;;5.75;1.02;;;18.10;99.90;;;;;;5072247;28;20123;-72
2022/08/27 08:47:31;;;;;;;2.95;0.70;;;18.20;99.90;;;;;;5071300;28;20471;-73
2022/08/27 08:50:16;;;;;;;7.07;1.05;;;18.20;99.90;;;;;;5073058;28;20044;-72
2022/08/27 08:53:28;;;;;;;6.28;0.90;;;18.30;99.90;;;;;;5065379;28;20068;-72
2022/08/27 08:55:57;;;;;;;7.15;1.48;;;18.30;99.90;;;;;;5066317;28;20045;-73
2022/08/27 08:58:45;;;;;;;5.65;1.33;;;18.40;99.90;;;;;;5072977;28;20032;-74
2022/08/27 09:01:13;;;;;;;4.32;0.98;;;18.40;99.90;;;;;;5072319;28;20041;-73
2022/08/27 09:03:41;;;;;;;5.95;0.75;;;19.20;99.90;;;;;;5073512;28;20588;-73
2022/08/27 09:06:51;;;;;;;7.85;1.17;;;19.10;99.90;;;;;;5072023;28;20040;-75
2022/08/27 09:09:19;;;;;;;4.28;1.65;;;18.60;99.90;;;;;;5069041;28;20041;-74
2022/08/27 09:11:58;;;;;;;7.28;1.15;;;18.70;99.90;;;;;;5072909;28;20055;-74
2022/08/27 09:14:34;;;;;;;7.53;1.30;;;18.60;99.90;;;;;;5071397;28;20524;-73
2022/08/27 09:17:01;;;;;;;7.30;1.60;;;18.60;99.90;;;;;;5070841;28;20099;-75
2022/08/27 09:19:27;;;;;;;7.88;0.93;;;19.20;99.90;;;;;;5054410;28;20496;-75
2022/08/27 09:22:04;;;;;;;7.00;0.98;;;18.60;99.90;;;;;;5072649;28;20056;-72
2022/08/27 09:24:47;;;;;;;4.85;1.08;;;18.60;99.90;;;;;;5071681;28;20124;-71
2022/08/27 09:27:14;;;;;;;9.00;1.30;;;18.50;99.90;;;;;;5072383;28;20511;-73
2022/08/27 09:29:54;;;;;;;8.18;1.10;;;18.60;99.90;;;;;;5071676;28;20063;-72
2022/08/27 09:32:25;;;;;;;4.47;1.17;;;18.60;99.90;;;;;;5072315;28;20036;-73
2022/08/27 09:34:56;;;;;;;9.98;2.13;;;18.70;99.90;;;;;;5072408;28;20044;-72
2022/08/27 09:37:26;;;;;;;8.55;1.23;;;18.70;99.90;;;;;;5070282;28;20040;-72
2022/08/27 09:40:08;;;;;;;4.45;1.10;;;18.80;99.90;;;;;;5071263;28;20401;-72
2022/08/27 09:42:47;;;;;;;6.78;1.17;;;18.70;99.90;;;;;;5072180;28;20048;-72
2022/08/27 09:45:17;;;;;;;8.52;1.08;;;18.80;99.90;;;;;;5070494;28;20036;-72
2022/08/27 09:47:54;;;;;;;5.95;0.80;;;18.90;99.90;;;;;;5072242;28;20045;-72
2022/08/27 09:50:22;;;;;;;7.78;1.15;;;18.90;99.90;;;;;;5071230;28;20047;-72
2022/08/27 09:52:54;;;;;;;4.00;0.85;;;19.00;99.90;;;;;;5062592;28;20097;-72
2022/08/27 09:55:42;;;;;;;5.47;1.23;;;18.90;99.90;;;;;;5072345;28;20125;-72
2022/08/27 09:58:27;;;;;;;13.57;4.40;;;19.60;99.90;;;;;;5066105;28;20048;-73
2022/08/27 10:01:14;;;;;;;5.88;1.83;;;19.00;99.90;;;;;;5063382;28;20540;-72
2022/08/27 10:03:41;;;;;;;8.30;1.10;;;19.00;99.90;;;;;;5071800;28;20448;-72
2022/08/27 10:06:08;;;;;;;6.18;0.77;;;19.20;99.90;;;;;;5070114;28;20064;-72
2022/08/27 10:08:44;;;;;;;7.90;1.23;;;19.00;99.90;;;;;;5071750;28;20051;-72
2022/08/27 10:11:21;;;;;;;6.40;0.98;;;19.00;99.90;;;;;;5069726;28;20045;-73
2022/08/27 10:14:03;;;;;;;14.98;1.40;;;19.00;99.90;;;;;;5062286;28;20075;-75
2022/08/27 10:16:46;;;;;;;2.72;0.98;;;19.00;99.90;;;;;;5071619;28;20044;-72
2022/08/27 10:19:42;;;;;;;5.80;0.70;;;19.00;99.90;;;;;;5071059;28;20046;-74
2022/08/27 10:22:35;;;;;;;5.00;0.68;;;19.10;99.90;;;;;;5065758;28;20478;-72
2022/08/27 10:25:28;;;;;;;4.13;0.75;;;19.10;99.90;;;;;;5065190;28;20040;-71
2022/08/27 10:28:28;;;;;;;6.25;1.10;;;19.20;99.90;;;;;;5063824;28;20127;-72
2022/08/27 10:31:41;;;;;;;9.10;1.10;;;19.30;99.90;;;;;;5064057;28;20044;-72
2022/08/27 10:34:38;;;;;;;3.17;0.90;;;19.50;99.90;;;;;;5011895;28;20081;-74
2022/08/27 10:37:22;;;;;;;4.03;0.73;;;19.60;99.90;;;;;;5029744;28;20049;-73
2022/08/27 10:40:02;;;;;;;5.13;0.98;;;19.60;99.90;;;;;;5071078;28;20059;-74
2022/08/27 10:42:35;;;;;;;7.15;1.27;;;19.70;99.90;;;;;;5071172;28;20037;-73
2022/08/27 10:45:15;;;;;;;7.82;1.00;;;19.70;99.90;;;;;;5071434;28;20063;-74
2022/08/27 10:47:59;;;;;;;3.42;0.85;;;19.70;99.90;;;;;;5069481;28;20098;-74
2022/08/27 10:50:27;;;;;;;5.55;0.80;;;19.70;99.90;;;;;;5071774;28;20053;-74
2022/08/27 10:53:03;;;;;;;6.78;1.05;;;19.70;99.90;;;;;;5062924;28;20045;-73
2022/08/27 10:55:33;;;;;;;3.67;0.88;;;19.70;99.90;;;;;;5070447;28;20403;-74
2022/08/27 10:58:41;;;;;;;8.13;1.23;;;19.80;99.90;;;;;;5069774;28;20041;-74
2022/08/27 11:01:29;;;;;;;3.63;0.80;;;19.90;99.90;;;;;;5060650;28;20511;-73
2022/08/27 11:04:30;;;;;;;3.55;0.52;;;20.10;99.90;;;;;;5063735;28;20508;-73
2022/08/27 11:07:05;;;;;;;5.60;0.82;;;20.20;99.90;;;;;;5042450;28;20438;-73
2022/08/27 11:09:49;;;;;;;6.97;1.58;;;20.20;99.90;;;;;;5070253;28;20048;-73
2022/08/27 11:12:21;;;;;;;5.53;0.80;;;20.40;99.90;;;;;;5069520;28;20056;-72
2022/08/27 11:14:55;;;;;;;6.97;0.68;;;20.50;99.90;;;;;;5068923;28;20859;-72
2022/08/27 11:17:41;;;;;;;;;;;20.70;99.90;;;;;;5071635;28;20040;-73
2022/08/27 11:20:13;;;;;;;4.70;0.52;;;20.90;99.90;;;;;;5063188;28;19995;-73
2022/08/27 11:22:53;;;;;;;4.60;0.85;;;20.90;99.90;;;;;;5069840;28;20040;-72
2022/08/27 11:25:43;;;;;;;4.10;0.55;;;21.00;99.90;;;;;;5069595;28;20091;-72
2022/08/27 11:28:10;;;;;;;3.97;1.05;;;20.90;99.90;;;;;;5064367;28;20052;-73
2022/08/27 11:30:54;;;;;;;4.88;1.00;;;21.50;99.90;;;;;;5068708;28;20036;-72
2022/08/27 11:33:37;;;;;;;6.78;1.15;;;20.90;99.90;;;;;;5070980;28;20088;-74
2022/08/27 11:36:27;;;;;;;11.35;1.10;;;21.00;99.90;;;;;;5061635;28;20102;-72
2022/08/27 11:38:58;;;;;;;5.28;1.05;;;21.20;99.90;;;;;;5069382;28;20089;-71
2022/08/27 11:41:43;;;;;;;6.85;1.05;;;21.30;99.90;;;;;;5070548;28;20047;-72
2022/08/27 11:44:09;;;;;;;5.43;1.05;;;21.40;99.90;;;;;;5062245;28;20036;-74
2022/08/27 11:46:47;;;;;;;4.85;0.52;;;21.30;99.90;;;;;;5070747;28;20045;-74
2022/08/27 11:49:35;;;;;;;5.13;0.45;;;21.30;99.90;;;;;;5070983;28;20119;-74
2022/08/27 11:52:06;;;;;;;6.18;0.80;;;21.80;99.90;;;;;;5061701;28;20396;-72
2022/08/27 11:55:07;;;;;;;5.28;0.82;;;21.10;99.90;;;;;;5069400;28;20036;-72
2022/08/27 11:57:35;;;;;;;3.13;0.47;;;21.00;99.90;;;;;;5049025;28;20132;-72
2022/08/27 12:00:26;;;;;;;6.35;0.95;;;21.10;99.90;;;;;;5062457;28;20048;-74
2022/08/27 12:03:04;;;;;;;5.10;1.00;;;21.20;99.90;;;;;;5070163;28;20052;-72
2022/08/27 12:06:01;;;;;;;7.53;1.00;;;21.20;99.90;;;;;;5070222;28;20048;-73
2022/08/27 12:08:30;;;;;;;6.25;0.95;;;21.10;99.90;;;;;;5060058;28;20056;-72
2022/08/27 12:11:24;;;;;;;4.63;0.73;;;21.00;99.90;;;;;;5069400;28;20040;-73
2022/08/27 12:14:19;;;;;;;5.20;0.52;;;21.00;99.90;;;;;;5071112;28;20064;-72
2022/08/27 12:17:03;;;;;;;6.18;0.68;;;21.30;99.90;;;;;;5072232;28;20086;-73
2022/08/27 12:19:50;;;;;;;6.95;1.02;;;21.00;99.90;;;;;;5073188;28;20111;-72
2022/08/27 12:25:37;;;;;;;5.38;0.90;;;21.40;99.90;;;;;;5069939;28;20052;-72
2022/08/27 12:28:06;;;;;;;5.90;0.82;;;21.40;99.90;;;;;;5073791;28;20048;-71
2022/08/27 12:30:34;;;;;;;5.18;1.00;;;21.40;99.90;;;;;;5073871;28;20049;-72
2022/08/27 12:33:25;;;;;;;5.25;0.80;;;21.50;99.90;;;;;;5071581;28;20119;-72
2022/08/27 12:35:55;;;;;;;6.50;0.80;;;21.70;99.90;;;;;;5072280;28;20056;-72
2022/08/27 12:38:35;;;;;;;4.07;0.90;;;22.00;99.90;;;;;;5073543;28;20064;-72
2022/08/27 12:41:07;;;;;;;3.10;0.68;;;22.00;99.90;;;;;;5072528;28;20037;-72
2022/08/27 12:43:37;;;;;;;5.72;0.60;;;22.10;99.90;;;;;;5073775;28;20392;-72
2022/08/27 12:46:10;;;;;;;5.47;0.45;;;22.30;99.90;;;;;;5072931;28;20111;-74
2022/08/27 12:48:46;;;;;;;8.43;0.88;;;22.40;99.90;;;;;;5073441;28;20055;-73
2022/08/27 12:51:13;;;;;;;3.55;0.70;;;22.60;99.90;;;;;;5065722;28;20036;-72
2022/08/27 12:53:53;;;;;;;4.85;0.93;;;23.30;99.90;;;;;;5072948;28;20115;-74
2022/08/27 12:56:48;;;;;;;2.80;0.57;;;22.90;99.90;;;;;;5066817;28;20547;-74
2022/08/27 12:59:32;;;;;;;6.30;1.30;;;23.00;99.90;;;;;;5066229;28;20044;-75
2022/08/27 13:02:15;;;;;;;2.38;0.35;;;23.30;99.90;;;;;;5072137;28;20131;-72
2022/08/27 13:04:42;;;;;;;4.38;0.60;;;22.70;99.90;;;;;;5073228;28;20431;-75
2022/08/27 13:07:08;;;;;;;4.63;0.52;;;22.60;99.80;;;;;;5064356;28;20064;-75
2022/08/27 13:09:36;;;;;;;2.97;0.57;;;22.50;99.90;;;;;;5072989;28;20051;-73
2022/08/27 13:12:13;;;;;;;4.32;0.70;;;22.60;99.90;;;;;;5071305;28;20036;-72
2022/08/27 13:14:40;;;;;;;2.08;0.30;;;22.70;99.90;;;;;;5072677;28;20137;-72
2022/08/27 13:17:14;;;;;;;5.00;0.77;;;22.60;99.70;;;;;;5073168;28;20079;-74
2022/08/27 13:19:49;;;;;;;4.60;0.60;;;22.70;99.70;;;;;;5071662;28;20049;-73